Sanborn, Wisconsin
Current Conditions -  °F | °C
As of 7:53 PM on Monday 24 Nov 2014 (Local Time) from KASX Reporting Station
Light Snow Light Snow  
Wind Chill: 12°   Ceiling: 2500
Heat Index: 22°   Visibility: 3mi
Dew Point: 18°   Wind: 9mph
Humidity: 85%   Direction: 330°NNW
Pressure: 29.67"   Gusts: NA
Location:  46.543°N, 90.8706°W
Report Text: KASX 250153Z AUTO 33008KT 3SM -SN BR FEW016 OVC025 M06/M08 A2967 RMK AO2 SLP060 P0000 T10561078
Loading
Personal Weather Stations






























Interactive Weather Map New forecast layout! Learn more

10-Day Weather Forecast

Advertisements
Track Severe Weather on mobile